Time;durP1;ratioP1;P1;durP2;ratioP2;P2;SDS_P1;SDS_P2;PMS_P1;PMS_P2;Temp;Humidity;BMP_temperature;BMP_pressure;BME280_temperature;BME280_humidity;BME280_pressure;Samples;Min_cycle;Max_cycle;Signal;HPM_P1;HPM_P2
2020/12/21 00:00:10;;;;;;;14.53;7.28;;;;;;;8.22;54.09;102330.69;1818331;78;22317;-81
2020/12/21 00:02:48;;;;;;;12.68;7.03;;;;;;;8.22;54.12;102333.80;1818120;78;21172;-81
2020/12/21 00:05:16;;;;;;;13.58;7.40;;;;;;;8.21;54.13;102330.28;1818369;78;21619;-81
2020/12/21 00:07:44;;;;;;;16.67;7.90;;;;;;;8.20;54.19;102334.39;1818204;78;21209;-81
2020/12/21 00:10:12;;;;;;;17.80;8.35;;;;;;;8.19;54.19;102329.53;1817794;78;21168;-77
2020/12/21 00:12:40;;;;;;;14.25;7.95;;;;;;;8.19;54.16;102324.20;1817602;78;22694;-80
2020/12/21 00:15:08;;;;;;;14.35;7.55;;;;;;;8.18;54.19;102329.16;1817722;78;21007;-80
2020/12/21 00:17:36;;;;;;;23.52;7.92;;;;;;;8.18;54.16;102329.64;1817807;78;21438;-81
2020/12/21 00:20:05;;;;;;;18.00;8.40;;;;;;;8.18;54.18;102326.49;1817900;78;21185;-81
2020/12/21 00:22:34;;;;;;;11.15;5.92;;;;;;;8.15;54.17;102329.34;1817844;78;21176;-81
2020/12/21 00:25:02;;;;;;;15.18;8.05;;;;;;;8.13;54.15;102324.59;1817620;78;21204;-80
2020/12/21 00:27:30;;;;;;;11.88;6.95;;;;;;;8.10;54.18;102326.97;1817519;78;21169;-79
2020/12/21 00:29:58;;;;;;;13.53;7.40;;;;;;;8.10;54.19;102326.11;1818065;78;21173;-79
2020/12/21 00:32:25;;;;;;;12.10;6.65;;;;;;;8.09;54.17;102321.25;1818221;78;21114;-80
2020/12/21 00:34:55;;;;;;;15.48;8.48;;;;;;;8.07;54.14;102324.48;1818349;78;21169;-81
2020/12/21 00:37:22;;;;;;;15.58;7.95;;;;;;;8.05;54.15;102327.73;1818037;78;21588;-80
2020/12/21 00:39:50;;;;;;;16.42;8.95;;;;;;;8.03;54.17;102318.95;1817944;78;21180;-79
2020/12/21 00:42:18;;;;;;;15.78;8.48;;;;;;;8.02;54.15;102326.58;1818311;78;21129;-79
2020/12/21 00:44:47;;;;;;;13.98;6.62;;;;;;;8.00;54.21;102327.17;1818314;78;21200;-80
2020/12/21 00:47:15;;;;;;;10.55;5.65;;;;;;;7.96;54.26;102328.31;1818453;78;21710;-79
2020/12/21 00:49:42;;;;;;;10.13;6.15;;;;;;;7.96;54.24;102326.13;1783726;78;21713;-78
2020/12/21 00:52:10;;;;;;;12.00;6.80;;;;;;;7.96;54.25;102329.64;1779985;80;21185;-79
2020/12/21 00:54:38;;;;;;;11.30;6.33;;;;;;;7.96;54.25;102328.79;1747499;82;21197;-78
2020/12/21 00:57:06;;;;;;;11.40;7.10;;;;;;;7.97;54.16;102330.02;1780131;80;21221;-78
2020/12/21 00:59:34;;;;;;;11.05;6.92;;;;;;;7.94;54.15;102330.67;1747981;82;21118;-79
2020/12/21 01:02:05;;;;;;;12.35;7.08;;;;;;;7.87;54.22;102331.06;1785218;78;21806;-78
2020/12/21 01:04:33;;;;;;;11.08;6.78;;;;;;;7.84;54.19;102331.73;1769932;79;21474;-79
2020/12/21 01:07:01;;;;;;;11.45;6.85;;;;;;;7.81;54.29;102335.91;1801716;79;21129;-78
2020/12/21 01:09:29;;;;;;;10.43;6.65;;;;;;;7.79;54.33;102325.82;1801917;79;21174;-79
2020/12/21 01:11:57;;;;;;;11.48;7.15;;;;;;;7.78;54.36;102328.11;1785489;79;21185;-79
2020/12/21 01:14:25;;;;;;;10.15;6.35;;;;;;;7.77;54.38;102325.92;1780593;80;21749;-80
2020/12/21 01:16:53;;;;;;;11.35;7.28;;;;;;;7.79;54.41;102321.81;1780434;80;21224;-80
2020/12/21 01:19:21;;;;;;;10.85;6.62;;;;;;;7.80;54.40;102319.52;1780605;80;21078;-78
2020/12/21 01:21:50;;;;;;;13.50;8.05;;;;;;;7.81;54.38;102325.23;1780664;80;21173;-79
2020/12/21 01:24:18;;;;;;;14.13;7.92;;;;;;;7.81;54.34;102321.23;1780677;80;21137;-78
2020/12/21 01:26:45;;;;;;;13.90;7.72;;;;;;;7.81;54.32;102325.23;1780476;80;21380;-77
2020/12/21 01:29:13;;;;;;;9.30;5.95;;;;;;;7.81;54.28;102329.23;1780589;80;21616;-78
2020/12/21 01:31:43;;;;;;;11.75;7.40;;;;;;;7.79;54.31;102327.16;1780482;80;21165;-79
2020/12/21 01:34:14;;;;;;;11.68;7.58;;;;;;;7.80;54.26;102328.86;1780713;80;21683;-80
2020/12/21 01:36:43;;;;;;;11.75;7.22;;;;;;;7.81;54.29;102329.23;1780480;80;21156;-79
2020/12/21 01:39:11;;;;;;;12.25;7.17;;;;;;;7.83;54.27;102333.55;1780788;80;21410;-78
2020/12/21 01:41:39;;;;;;;11.50;7.53;;;;;;;7.87;54.23;102331.55;1780313;80;21223;-80
2020/12/21 01:44:07;;;;;;;12.50;7.97;;;;;;;7.87;54.15;102332.88;1780754;80;21675;-82
2020/12/21 01:46:35;;;;;;;13.45;7.75;;;;;;;7.85;54.16;102329.44;1748632;80;21683;-80
2020/12/21 01:49:02;;;;;;;11.88;7.37;;;;;;;7.83;54.17;102327.34;1780131;80;21618;-79
2020/12/21 01:51:30;;;;;;;13.85;8.05;;;;;;;7.83;54.12;102330.02;1780180;80;21206;-81
2020/12/21 01:53:58;;;;;;;11.22;7.03;;;;;;;7.80;54.12;102328.86;1761933;80;21185;-78
2020/12/21 01:56:26;;;;;;;12.25;7.70;;;;;;;7.78;54.23;102322.78;1731372;82;21126;-78
2020/12/21 01:58:54;;;;;;;13.83;8.43;;;;;;;7.78;54.34;102320.97;1752931;80;21406;-78
2020/12/21 02:01:21;;;;;;;14.53;7.62;;;;;;;7.78;54.50;102319.63;1767872;80;21171;-79
2020/12/21 02:03:49;;;;;;;15.25;7.97;;;;;;;7.77;54.62;102315.73;1754640;80;21993;-77
2020/12/21 02:06:17;;;;;;;15.48;8.45;;;;;;;7.76;54.77;102313.99;1758464;80;21114;-79
2020/12/21 02:08:46;;;;;;;16.95;8.58;;;;;;;7.77;54.80;102313.06;1757376;80;21511;-81
2020/12/21 02:11:15;;;;;;;18.10;9.20;;;;;;;7.77;54.84;102313.06;1780584;80;21200;-81
2020/12/21 02:13:44;;;;;;;15.80;8.48;;;;;;;7.74;54.92;102319.91;1736494;82;21539;-84
2020/12/21 02:16:15;;;;;;;12.75;7.05;;;;;;;7.71;54.92;102317.42;1761539;80;21395;-81
2020/12/21 02:18:42;;;;;;;13.38;7.50;;;;;;;7.68;54.96;102317.63;1755299;80;21075;-80
2020/12/21 02:21:10;;;;;;;12.65;7.65;;;;;;;7.67;54.98;102321.23;1748143;82;21162;-80
2020/12/21 02:23:38;;;;;;;15.45;8.65;;;;;;;7.65;55.04;102321.81;1756361;80;21385;-78
2020/12/21 02:26:06;;;;;;;19.23;9.28;;;;;;;7.62;55.07;102323.70;1730972;81;21562;-78
2020/12/21 02:28:35;;;;;;;20.35;9.88;;;;;;;7.59;55.18;102327.05;1752250;80;22635;-80
2020/12/21 02:31:02;;;;;;;17.90;9.15;;;;;;;7.59;55.21;102322.57;1751548;80;21542;-79
2020/12/21 02:33:30;;;;;;;39.40;18.25;;;;;;;7.59;55.29;102319.91;1778563;80;21413;-81
2020/12/21 02:35:58;;;;;;;34.53;18.65;;;;;;;7.60;55.30;102319.42;1733976;82;21652;-79
2020/12/21 02:38:26;;;;;;;20.88;11.80;;;;;;;7.60;55.31;102323.42;1754977;81;21167;-77
2020/12/21 02:40:54;;;;;;;17.62;10.20;;;;;;;7.61;55.35;102325.13;1750147;81;21386;-79
2020/12/21 02:43:22;;;;;;;38.98;8.98;;;;;;;7.63;55.34;102330.77;1759182;80;21225;-78
2020/12/21 02:45:50;;;;;;;19.65;8.88;;;;;;;7.66;55.35;102328.85;1779403;80;21085;-79
2020/12/21 02:48:17;;;;;;;18.65;9.68;;;;;;;7.66;55.41;102335.52;1777395;80;21113;-79
2020/12/21 02:50:46;;;;;;;17.57;9.50;;;;;;;7.67;55.39;102323.89;1737764;82;21113;-77
2020/12/21 02:53:17;;;;;;;22.65;10.03;;;;;;;7.66;55.42;102327.52;1762547;80;21359;-82
2020/12/21 02:55:45;;;;;;;18.45;8.73;;;;;;;7.66;55.39;102332.38;1751758;80;21185;-82
2020/12/21 02:58:13;;;;;;;15.58;8.38;;;;;;;7.62;55.51;102334.36;1755352;80;21185;-81
2020/12/21 03:00:43;;;;;;;14.93;8.10;;;;;;;7.61;55.58;102330.47;1773724;80;21177;-78
2020/12/21 03:03:12;;;;;;;18.42;9.33;;;;;;;7.59;55.67;102329.23;1756773;80;21162;-80
2020/12/21 03:05:40;;;;;;;15.40;8.43;;;;;;;7.60;55.78;102330.09;1736220;82;21221;-78
2020/12/21 03:08:08;;;;;;;17.17;8.35;;;;;;;7.59;55.86;102326.57;1760415;80;21214;-82
2020/12/21 03:10:38;;;;;;;17.60;8.73;;;;;;;7.59;55.90;102327.91;1735841;82;21135;-80
2020/12/21 03:13:06;;;;;;;19.75;8.68;;;;;;;7.57;56.00;102328.45;1771021;78;21196;-80
2020/12/21 03:15:35;;;;;;;15.28;7.85;;;;;;;7.55;56.05;102327.70;1780542;80;21168;-77
2020/12/21 03:18:03;;;;;;;20.72;9.80;;;;;;;7.52;56.17;102330.55;1780565;80;21373;-82
2020/12/21 03:20:31;;;;;;;14.60;7.40;;;;;;;7.45;56.25;102327.00;1780573;80;21086;-81
2020/12/21 03:22:59;;;;;;;20.60;9.23;;;;;;;7.43;56.47;102330.24;1796498;78;21178;-81
2020/12/21 03:25:26;;;;;;;15.35;8.23;;;;;;;7.42;56.52;102334.72;1758881;78;21572;-82
2020/12/21 03:27:54;;;;;;;13.75;7.62;;;;;;;7.42;56.62;102336.06;1710140;83;21352;-79
2020/12/21 03:30:22;;;;;;;25.35;8.75;;;;;;;7.44;56.61;102338.14;1726396;83;21761;-82
2020/12/21 03:32:52;;;;;;;18.42;8.70;;;;;;;7.44;56.65;102335.95;1748085;82;21202;-81
2020/12/21 03:35:22;;;;;;;16.37;8.30;;;;;;;7.43;56.61;102342.24;1747889;82;21088;-81
2020/12/21 03:37:50;;;;;;;17.77;8.78;;;;;;;7.40;56.62;102345.08;1748126;82;21215;-79
2020/12/21 03:40:18;;;;;;;18.37;8.20;;;;;;;7.35;56.67;102348.02;1747767;82;21202;-79
2020/12/21 03:42:46;;;;;;;20.85;9.78;;;;;;;7.78;55.66;102344.12;1748176;82;21361;-79
2020/12/21 03:45:13;;;;;;;23.92;10.03;;;;;;;7.85;55.46;102344.96;1748437;82;21217;-80
2020/12/21 03:47:43;;;;;;;30.48;13.40;;;;;;;7.88;55.44;102350.59;1748440;82;21163;-82
2020/12/21 03:50:11;;;;;;;49.08;21.12;;;;;;;7.91;55.11;102351.75;1748237;81;21308;-82
2020/12/21 03:52:39;;;;;;;55.48;24.55;;;;;;;7.89;54.75;102350.49;1748488;82;21206;-78
2020/12/21 03:55:07;;;;;;;48.38;21.75;;;;;;;7.88;54.50;102346.59;1748443;82;21208;-78
2020/12/21 03:57:34;;;;;;;44.25;20.02;;;;;;;7.84;54.10;102350.41;1748700;82;21215;-79
2020/12/21 04:00:06;;;;;;;38.25;18.37;;;;;;;7.78;53.96;102352.13;1748558;81;21159;-78
2020/12/21 04:02:37;;;;;;;45.12;21.93;;;;;;;7.74;53.76;102342.59;1747755;82;21214;-77
2020/12/21 04:05:08;;;;;;;37.65;20.00;;;;;;;7.76;53.67;102348.67;1748861;82;21143;-81
2020/12/21 04:07:36;;;;;;;39.92;20.90;;;;;;;7.73;53.53;102343.55;1748778;82;22316;-80
2020/12/21 04:10:06;;;;;;;37.13;18.32;;;;;;;7.72;53.30;102341.36;1719086;82;21175;-81
2020/12/21 04:12:35;;;;;;;37.03;19.45;;;;;;;7.71;53.28;102338.77;1748479;81;21178;-79
2020/12/21 04:15:05;;;;;;;35.80;18.52;;;;;;;7.68;53.19;102338.97;1748516;82;21174;-78
2020/12/21 04:17:33;;;;;;;41.00;18.62;;;;;;;7.67;53.19;102339.42;1748601;81;21392;-79
2020/12/21 04:20:01;;;;;;;37.78;18.00;;;;;;;7.68;53.26;102340.30;1748493;81;21805;-77
2020/12/21 04:22:30;;;;;;;40.17;17.52;;;;;;;7.70;53.28;102337.05;1748518;81;21096;-78
2020/12/21 04:24:59;;;;;;;41.20;18.20;;;;;;;7.72;53.30;102341.80;1748608;82;21175;-78
2020/12/21 04:27:27;;;;;;;41.13;18.75;;;;;;;7.73;53.39;102342.22;1748508;81;21234;-76
2020/12/21 04:29:55;;;;;;;37.10;17.20;;;;;;;7.71;53.50;102337.42;1748438;82;21645;-77
2020/12/21 04:32:23;;;;;;;40.98;18.67;;;;;;;7.73;53.47;102342.22;1748557;82;22031;-78
2020/12/21 04:34:50;;;;;;;40.17;17.45;;;;;;;7.73;53.35;102340.40;1748369;82;21171;-81
2020/12/21 04:37:18;;;;;;;40.20;19.00;;;;;;;7.74;53.26;102336.77;1748736;81;21132;-81
2020/12/21 04:39:46;;;;;;;41.95;19.92;;;;;;;7.74;53.03;102346.59;1748455;82;21657;-77
2020/12/21 04:42:13;;;;;;;45.73;19.70;;;;;;;7.67;52.93;102342.56;1772425;79;21185;-78
2020/12/21 04:44:43;;;;;;;35.83;15.75;;;;;;;7.61;52.90;102341.14;1708042;82;22169;-78
2020/12/21 04:47:10;;;;;;;34.88;15.83;;;;;;;7.56;53.14;102345.41;1794149;79;21628;-79
2020/12/21 04:49:38;;;;;;;33.98;17.62;;;;;;;7.56;53.32;102361.41;1769987;81;21170;-78
2020/12/21 04:52:06;;;;;;;43.98;22.02;;;;;;;7.59;53.28;102371.05;1715636;81;21414;-81
2020/12/21 04:54:34;;;;;;;43.63;21.65;;;;;;;7.63;53.34;102367.26;1769508;80;21605;-82
2020/12/21 04:57:02;;;;;;;39.73;20.43;;;;;;;7.66;53.04;102353.71;1739311;81;21983;-81
2020/12/21 04:59:30;;;;;;;36.68;18.95;;;;;;;7.67;52.83;102353.23;1769570;81;21384;-80
2020/12/21 05:01:57;;;;;;;42.95;21.73;;;;;;;7.66;52.71;102364.38;1769785;80;21179;-80
2020/12/21 05:04:25;;;;;;;34.27;18.37;;;;;;;7.62;52.52;102350.36;1784816;79;21193;-80
2020/12/21 05:06:56;;;;;;;30.30;15.63;;;;;;;7.61;52.32;102356.66;1799970;79;21196;-77
2020/12/21 05:09:25;;;;;;;30.72;16.97;;;;;;;7.60;52.13;102361.62;1799979;79;22596;-77
2020/12/21 05:11:56;;;;;;;27.13;15.15;;;;;;;7.58;52.17;102349.31;1789501;79;21041;-79
2020/12/21 05:14:35;;;;;;;28.00;14.95;;;;;;;7.58;52.08;102361.31;1783272;78;21193;-78
2020/12/21 05:17:14;;;;;;;24.67;14.45;;;;;;;7.56;52.06;102353.89;1793485;79;21336;-77
2020/12/21 05:19:43;;;;;;;28.23;15.48;;;;;;;7.54;52.03;102364.66;1768386;81;21165;-79
2020/12/21 05:22:16;;;;;;;25.85;14.73;;;;;;;7.57;51.76;102355.13;1768514;81;21371;-78
2020/12/21 05:24:44;;;;;;;24.02;14.40;;;;;;;7.58;51.73;102359.50;1768595;81;21122;-77
2020/12/21 05:27:17;;;;;;;25.72;14.78;;;;;;;7.56;51.69;102366.75;1767656;79;21129;-76
2020/12/21 05:29:54;;;;;;;20.25;11.60;;;;;;;7.52;51.72;102376.36;1778499;80;21134;-79
2020/12/21 05:32:22;;;;;;;22.13;12.82;;;;;;;7.50;51.89;102383.13;1767801;81;21122;-77
2020/12/21 05:34:50;;;;;;;26.27;14.87;;;;;;;7.50;51.76;102391.12;1781400;80;21452;-78
2020/12/21 05:37:19;;;;;;;26.87;14.20;;;;;;;7.38;51.54;102383.36;1768307;81;21153;-76
2020/12/21 05:39:55;;;;;;;25.37;13.45;;;;;;;7.29;51.66;102391.05;1767330;81;21625;-77
2020/12/21 05:42:27;;;;;;;32.23;16.23;;;;;;;7.28;51.51;102391.52;1767781;81;21086;-76
2020/12/21 05:45:00;;;;;;;26.65;14.83;;;;;;;7.22;51.36;102385.67;1783252;78;21434;-79
2020/12/21 05:47:28;;;;;;;27.00;14.45;;;;;;;7.14;51.40;102391.95;1767753;80;21386;-77
2020/12/21 05:50:03;;;;;;;25.55;14.33;;;;;;;7.09;51.37;102403.73;1707326;80;21209;-79
2020/12/21 05:52:37;;;;;;;26.70;13.48;;;;;;;7.01;51.49;102404.62;1779556;80;21097;-78
2020/12/21 05:55:10;;;;;;;24.72;13.22;;;;;;;6.89;51.24;102406.65;1764275;80;21117;-78
2020/12/21 05:57:39;;;;;;;22.00;12.78;;;;;;;6.77;51.07;102408.22;1765586;80;21272;-79
2020/12/21 06:00:11;;;;;;;20.52;11.08;;;;;;;6.77;51.20;102411.36;1778862;80;22241;-81
2020/12/21 06:02:39;;;;;;;22.48;12.82;;;;;;;6.78;51.18;102407.74;1774141;80;21216;-81
2020/12/21 06:05:10;;;;;;;20.17;11.10;;;;;;;6.78;51.06;102420.58;1740486;82;21090;-78
2020/12/21 06:07:39;;;;;;;17.42;10.72;;;;;;;6.79;50.48;102425.43;1776981;80;21192;-81
2020/12/21 06:10:08;;;;;;;18.55;10.53;;;;;;;6.74;50.26;102416.84;1750754;80;21210;-76
2020/12/21 06:12:47;;;;;;;18.23;10.58;;;;;;;6.67;49.87;102415.45;1771607;80;21765;-79
2020/12/21 06:15:22;;;;;;;16.97;9.98;;;;;;;6.55;49.89;102420.52;1747895;80;21237;-78
2020/12/21 06:17:50;;;;;;;17.57;10.35;;;;;;;6.48;50.26;102417.80;1756083;80;21542;-78
2020/12/21 06:20:20;;;;;;;23.40;12.95;;;;;;;6.52;50.40;102417.16;1771694;79;22147;-79
2020/12/21 06:22:48;;;;;;;20.65;11.83;;;;;;;6.46;49.95;102429.02;1775671;80;21125;-79
2020/12/21 06:25:23;;;;;;;16.82;9.73;;;;;;;6.41;50.14;102428.41;1768683;80;21193;-80
2020/12/21 06:27:50;;;;;;;19.98;10.70;;;;;;;6.44;49.96;102431.35;1765718;80;21133;-78
2020/12/21 06:30:29;;;;;;;17.57;9.30;;;;;;;6.46;49.64;102430.81;1749051;79;21446;-78
2020/12/21 06:33:03;;;;;;;16.27;8.88;;;;;;;6.39;49.22;102430.75;1777337;78;21090;-79
2020/12/21 06:35:42;;;;;;;15.03;8.80;;;;;;;6.29;48.91;102441.03;1778283;80;21096;-78
2020/12/21 06:38:11;;;;;;;11.38;6.62;;;;;;;6.14;49.06;102440.05;1772883;80;22599;-78
2020/12/21 06:41:04;;;;;;;17.55;9.55;;;;;;;6.08;49.07;102442.54;1774900;79;22015;-77
2020/12/21 06:44:06;;;;;;;14.00;8.53;;;;;;;6.04;48.87;102440.13;1746835;80;21110;-79
2020/12/21 06:46:42;;;;;;;15.55;10.18;;;;;;;5.97;48.81;102435.61;1824424;77;22794;-78
2020/12/21 06:49:13;;;;;;;15.03;9.45;;;;;;;5.92;48.98;102436.32;1805581;77;21513;-79
2020/12/21 06:51:47;;;;;;;24.90;14.90;;;;;;;5.99;48.95;102442.16;1808632;78;21363;-78
2020/12/21 06:54:16;;;;;;;26.02;15.83;;;;;;;5.99;48.79;102436.84;1821053;78;21195;-79
2020/12/21 06:56:46;;;;;;;20.02;12.05;;;;;;;6.00;48.83;102438.12;1815560;78;21674;-79
2020/12/21 06:59:16;;;;;;;21.10;12.55;;;;;;;6.02;48.94;102440.21;1816425;78;21564;-78
2020/12/21 07:01:45;;;;;;;25.25;15.25;;;;;;;6.03;48.89;102437.94;1813446;78;21142;-80
2020/12/21 07:04:18;;;;;;;29.57;17.05;;;;;;;6.04;48.88;102437.02;1818508;78;21367;-77
2020/12/21 07:06:47;;;;;;;37.10;19.98;;;;;;;6.07;49.07;102436.84;1803428;78;21166;-80
2020/12/21 07:09:23;;;;;;;35.92;18.37;;;;;;;6.15;49.00;102431.59;1809285;78;21136;-81
2020/12/21 07:12:05;;;;;;;31.93;18.30;;;;;;;6.19;48.73;102435.81;1832131;77;22992;-79
2020/12/21 07:14:39;;;;;;;23.70;14.50;;;;;;;6.14;48.70;102429.88;1791830;77;21176;-81
2020/12/21 07:17:12;;;;;;;25.23;15.00;;;;;;;6.07;48.79;102436.84;1782334;79;21782;-77
2020/12/21 07:19:47;;;;;;;20.17;11.15;;;;;;;6.02;49.10;102431.38;1797099;77;21132;-79
2020/12/21 07:22:13;;;;;;;16.17;9.88;;;;;;;6.05;49.33;102435.22;1771251;77;21125;-81
2020/12/21 07:24:42;;;;;;;16.55;9.55;;;;;;;6.03;49.14;102432.61;1796728;77;21100;-79
2020/12/21 07:27:10;;;;;;;17.50;10.28;;;;;;;6.04;49.31;102431.70;1800601;77;21108;-80
2020/12/21 07:29:39;;;;;;;21.77;13.18;;;;;;;6.08;49.07;102426.58;1796890;79;21203;-79
2020/12/21 07:32:07;;;;;;;21.65;12.98;;;;;;;6.07;49.03;102428.85;1792631;78;21140;-77
2020/12/21 07:34:36;;;;;;;23.45;14.65;;;;;;;6.04;49.11;102426.37;1808507;77;22068;-79
2020/12/21 07:37:11;;;;;;;20.77;12.20;;;;;;;6.10;49.15;102425.19;1790456;78;21110;-76
2020/12/21 07:39:39;;;;;;;16.57;10.43;;;;;;;6.20;48.86;102430.88;1815245;77;21089;-78
2020/12/21 07:42:11;;;;;;;15.50;9.60;;;;;;;6.23;48.18;102426.26;1801568;77;21372;-79
2020/12/21 07:44:49;;;;;;;18.92;11.10;;;;;;;6.26;48.32;102425.22;1789056;78;21112;-80
2020/12/21 07:47:29;;;;;;;16.75;10.75;;;;;;;6.32;48.11;102430.23;1788017;78;21089;-80
2020/12/21 07:49:59;;;;;;;14.87;9.10;;;;;;;6.32;47.76;102417.78;1794505;77;21191;-80
2020/12/21 07:52:28;;;;;;;14.50;8.83;;;;;;;6.29;47.74;102421.07;1794826;79;21348;-82
2020/12/21 07:54:59;;;;;;;13.35;8.43;;;;;;;6.27;47.73;102421.64;1803781;77;22654;-80
2020/12/21 07:57:30;;;;;;;17.17;11.28;;;;;;;6.25;47.68;102432.34;1791857;77;21211;-80
2020/12/21 07:59:58;;;;;;;16.42;10.03;;;;;;;6.22;47.68;102423.66;1798456;77;21642;-79
2020/12/21 08:02:27;;;;;;;15.43;10.15;;;;;;;6.19;47.76;102427.83;1791450;77;21195;-78
2020/12/21 08:04:55;;;;;;;24.10;11.30;;;;;;;6.15;47.88;102425.80;1796166;77;21204;-79
2020/12/21 08:07:29;;;;;;;18.77;9.30;;;;;;;6.14;48.11;102426.75;1793581;77;21404;-79
2020/12/21 08:09:58;;;;;;;25.30;12.55;;;;;;;6.17;48.32;102434.55;1792015;78;21625;-77
2020/12/21 08:12:33;;;;;;;17.45;10.15;;;;;;;6.23;48.21;102422.27;1795745;77;21191;-79
2020/12/21 08:15:02;;;;;;;15.65;9.58;;;;;;;6.29;48.21;102427.72;1804254;77;21113;-81
2020/12/21 08:17:32;;;;;;;22.95;12.07;;;;;;;6.31;48.18;102430.70;1793922;77;21096;-79
2020/12/21 08:20:05;;;;;;;16.27;9.63;;;;;;;6.35;48.09;102428.24;1797998;77;21830;-79
2020/12/21 08:22:33;;;;;;;12.40;8.35;;;;;;;6.34;47.96;102425.67;1780700;78;21123;-79
2020/12/21 08:25:13;;;;;;;12.45;7.55;;;;;;;6.29;47.84;102435.70;1769142;77;21073;-80
2020/12/21 08:27:49;;;;;;;13.80;8.73;;;;;;;6.22;47.81;102430.31;1818579;77;21124;-80
2020/12/21 08:30:19;;;;;;;15.53;9.58;;;;;;;6.17;47.91;102428.38;1772712;77;21106;-78
2020/12/21 08:32:47;;;;;;;15.55;9.38;;;;;;;6.16;48.08;102427.52;1776826;77;22252;-79
2020/12/21 08:35:26;;;;;;;13.78;8.63;;;;;;;6.16;48.02;102429.31;1799243;77;21690;-80
2020/12/21 08:38:07;;;;;;;16.10;9.88;;;;;;;6.11;48.21;102426.90;1798934;77;21412;-81
2020/12/21 08:40:35;;;;;;;18.57;11.40;;;;;;;6.14;48.22;102421.42;1794825;77;21097;-79
2020/12/21 08:43:06;;;;;;;23.67;14.55;;;;;;;6.20;48.30;102425.55;1795524;77;21739;-79
2020/12/21 08:45:36;;;;;;;21.68;11.57;;;;;;;6.21;48.30;102423.27;1800514;77;21354;-76
2020/12/21 08:48:10;;;;;;;16.62;10.48;;;;;;;6.21;48.29;102424.61;1796367;77;21116;-79
2020/12/21 08:50:38;;;;;;;13.25;8.00;;;;;;;6.24;48.11;102427.12;1799178;79;21098;-79
2020/12/21 08:53:07;;;;;;;15.35;10.32;;;;;;;6.29;48.04;102426.39;1773552;77;21100;-79
2020/12/21 08:55:35;;;;;;;12.90;7.97;;;;;;;6.34;47.92;102421.67;1799134;77;21468;-77
2020/12/21 08:58:03;;;;;;;10.98;7.03;;;;;;;6.37;47.85;102420.20;1799135;77;21410;-79
2020/12/21 09:00:31;;;;;;;14.43;7.85;;;;;;;6.40;47.49;102419.15;1791919;77;21571;-80
2020/12/21 09:03:05;;;;;;;10.45;5.60;;;;;;;6.35;47.40;102416.27;1794933;77;21148;-79
2020/12/21 09:05:31;;;;;;;7.45;5.37;;;;;;;6.35;47.39;102412.74;1794753;77;21132;-80
2020/12/21 09:08:02;;;;;;;7.78;5.03;;;;;;;6.36;47.01;102407.84;1793775;77;22010;-82
2020/12/21 09:10:30;;;;;;;11.88;5.60;;;;;;;6.38;46.91;102413.06;1798000;77;21184;-81
2020/12/21 09:13:01;;;;;;;11.45;6.87;;;;;;;6.38;46.80;102401.94;1794011;77;21114;-81
2020/12/21 09:15:29;;;;;;;9.98;6.28;;;;;;;6.41;46.72;102407.11;1793652;77;21196;-80
2020/12/21 09:17:57;;;;;;;8.40;6.03;;;;;;;6.44;46.74;102412.24;1792390;77;21164;-81
2020/12/21 09:20:25;;;;;;;24.20;13.35;;;;;;;6.42;46.49;102405.30;1793421;77;21163;-79
2020/12/21 09:22:54;;;;;;;14.58;9.00;;;;;;;6.38;46.49;102408.59;1792936;77;21457;-81
2020/12/21 09:25:22;;;;;;;10.05;7.10;;;;;;;6.12;47.18;102412.65;1796705;77;21222;-81
2020/12/21 09:27:50;;;;;;;10.03;5.80;;;;;;;6.17;47.03;102409.27;1794595;77;21192;-80
2020/12/21 09:30:19;;;;;;;8.63;6.33;;;;;;;5.93;47.51;102403.92;1790038;77;21271;-81
2020/12/21 09:32:47;;;;;;;7.05;4.70;;;;;;;5.89;47.49;102404.99;1793361;77;21683;-79
2020/12/21 09:35:15;;;;;;;7.33;5.33;;;;;;;5.85;47.71;102401.16;1791038;77;21454;-80
2020/12/21 09:37:43;;;;;;;8.50;5.55;;;;;;;6.21;46.91;102408.64;1774619;77;21198;-80
2020/12/21 09:40:13;;;;;;;8.45;5.85;;;;;;;6.09;46.89;102404.38;1791114;77;21742;-79
2020/12/21 09:42:42;;;;;;;10.28;6.65;;;;;;;5.82;47.62;102404.47;1790567;77;21272;-80
2020/12/21 09:45:10;;;;;;;10.28;7.15;;;;;;;5.76;47.67;102403.44;1792775;77;21095;-79
2020/12/21 09:47:38;;;;;;;7.72;5.92;;;;;;;5.70;47.96;102413.06;1794124;77;21308;-80
2020/12/21 09:50:09;;;;;;;9.70;6.05;;;;;;;5.59;47.83;102409.17;1795913;77;21120;-78
2020/12/21 09:52:38;;;;;;;6.60;5.25;;;;;;;5.52;47.60;102412.20;1788592;78;21129;-78
2020/12/21 09:55:11;;;;;;;7.00;5.75;;;;;;;5.43;47.72;102407.36;1807869;77;21124;-79
2020/12/21 09:57:37;;;;;;;9.95;6.83;;;;;;;5.34;47.60;102406.02;1794703;77;21097;-79
2020/12/21 10:00:10;;;;;;;11.33;7.25;;;;;;;5.23;47.97;102397.73;1788948;78;21352;-80
2020/12/21 10:02:37;;;;;;;14.03;8.25;;;;;;;5.22;48.13;102407.94;1791108;77;21185;-79
2020/12/21 10:05:05;;;;;;;12.07;7.90;;;;;;;5.24;48.22;102400.30;1794972;77;21108;-78
2020/12/21 10:07:34;;;;;;;12.45;7.40;;;;;;;5.26;48.12;102408.19;1793484;77;21088;-78
2020/12/21 10:10:02;;;;;;;10.15;6.17;;;;;;;5.30;48.24;102409.28;1792472;79;21126;-79
2020/12/21 10:12:40;;;;;;;7.97;5.62;;;;;;;5.36;48.09;102398.84;1798236;78;22055;-79
2020/12/21 10:15:12;;;;;;;5.65;4.50;;;;;;;5.70;47.25;102403.77;1778083;79;21126;-78
2020/12/21 10:17:41;;;;;;;9.45;4.58;;;;;;;5.91;46.54;102402.66;1802858;77;21595;-78
2020/12/21 10:20:12;;;;;;;6.20;5.03;;;;;;;5.97;46.42;102401.03;1802020;77;21109;-79
2020/12/21 10:22:43;;;;;;;8.40;5.62;;;;;;;6.02;45.89;102404.30;1800198;77;21512;-78
2020/12/21 10:25:11;;;;;;;10.75;7.03;;;;;;;6.00;45.80;102400.88;1796450;77;21209;-79
2020/12/21 10:27:41;;;;;;;8.53;5.60;;;;;;;6.02;45.59;102400.31;1800586;77;21679;-79
2020/12/21 10:30:09;;;;;;;9.63;6.20;;;;;;;6.01;45.26;102405.25;1798735;77;21133;-78
2020/12/21 10:32:37;;;;;;;9.33;5.17;;;;;;;6.01;45.15;102404.39;1798690;77;22046;-79
2020/12/21 10:35:06;;;;;;;5.97;4.85;;;;;;;5.99;44.99;102403.13;1796396;77;21113;-81
2020/12/21 10:37:41;;;;;;;7.22;5.55;;;;;;;5.94;44.69;102402.51;1796749;79;21637;-79
2020/12/21 10:40:08;;;;;;;12.40;6.30;;;;;;;5.91;44.87;102404.46;1795020;77;21137;-79
2020/12/21 10:42:38;;;;;;;11.55;7.47;;;;;;;5.92;44.66;102411.05;1794717;77;21163;-82
2020/12/21 10:45:06;;;;;;;5.05;4.08;;;;;;;5.91;44.47;102407.13;1790562;78;21093;-78
2020/12/21 10:47:35;;;;;;;19.98;10.18;;;;;;;5.84;44.24;102410.55;1788561;78;21094;-78
2020/12/21 10:50:03;;;;;;;11.33;6.50;;;;;;;5.75;44.15;102408.38;1789660;78;21322;-80
2020/12/21 10:52:32;;;;;;;7.60;5.92;;;;;;;5.63;44.26;102407.19;1771057;79;21116;-79
2020/12/21 10:55:03;;;;;;;10.98;6.30;;;;;;;5.54;44.52;102402.34;1801193;77;21086;-80
2020/12/21 10:57:31;;;;;;;8.83;5.45;;;;;;;5.14;45.43;102399.05;1766623;78;21171;-80
2020/12/21 11:00:00;;;;;;;9.28;6.40;;;;;;;4.99;45.89;102406.41;1798610;77;21109;-81
2020/12/21 11:02:32;;;;;;;5.15;3.80;;;;;;;4.96;46.01;102403.46;1777066;77;21104;-80
2020/12/21 11:05:04;;;;;;;9.55;4.15;;;;;;;4.98;45.66;102394.94;1767292;79;21135;-78
2020/12/21 11:07:32;;;;;;;6.83;4.12;;;;;;;4.98;45.83;102404.23;1787340;78;21513;-79
2020/12/21 11:10:03;;;;;;;9.38;5.47;;;;;;;5.01;46.03;102401.44;1813664;77;21138;-80
2020/12/21 11:12:31;;;;;;;7.95;3.95;;;;;;;5.04;45.99;102407.05;1797675;77;21112;-81
2020/12/21 11:15:00;;;;;;;3.05;2.75;;;;;;;5.06;45.98;102407.38;1795782;77;21186;-80
2020/12/21 11:17:28;;;;;;;5.28;4.42;;;;;;;5.07;45.77;102402.92;1799067;77;21123;-79
2020/12/21 11:20:00;;;;;;;6.25;5.05;;;;;;;4.99;45.93;102401.96;1793719;79;21128;-80
2020/12/21 11:22:28;;;;;;;7.35;4.67;;;;;;;4.96;45.80;102403.93;1804603;77;21074;-79
2020/12/21 11:25:00;;;;;;;5.28;3.77;;;;;;;4.92;45.95;102395.24;1787386;78;21097;-81
2020/12/21 11:27:30;;;;;;;4.85;3.80;;;;;;;4.88;46.05;102403.43;1796242;77;21357;-80
2020/12/21 11:29:58;;;;;;;10.45;4.92;;;;;;;4.81;46.09;102394.45;1799086;79;21104;-79
2020/12/21 11:32:26;;;;;;;8.18;5.42;;;;;;;4.83;46.14;102403.66;1798967;77;21100;-79
2020/12/21 11:34:59;;;;;;;7.45;4.92;;;;;;;4.80;45.93;102395.83;1795657;78;21115;-79